Nyrad, Denmark
Current Conditions -  °F | °C
As of 4:50 PM on Friday 28 Nov 2014 (Local Time) from EKAV Reporting Station
Overcast Overcast  
Wind Chill: 31°   Ceiling: 2600
Heat Index: 41°   Visibility: 6mi
Dew Point: 30°   Wind: 23mph
Humidity: 65%   Direction: 100°E
Pressure: 30.3"   Gusts: 37mph
Location:  55.01°N, 11.96°E
Report Text: EKAV 281550Z AUTO 10020G32KT 030V120 9999NDV OVC026///05/M01 Q1026
Loading
Personal Weather Stations






























Interactive Weather Map New forecast layout! Learn more

10-Day Weather Forecast

Advertisements
Track Severe Weather on mobile